Time;durP1;ratioP1;P1;durP2;ratioP2;P2;SDS_P1;SDS_P2;PMS_P1;PMS_P2;Temp;Humidity;BMP_temperature;BMP_pressure;BME280_temperature;BME280_humidity;BME280_pressure;Samples;Min_cycle;Max_cycle;Signal;HPM_P1;HPM_P2
2021/06/30 00:00:57;;;;;;;2.13;2.03;;;;;;;;;;5032972;28;20017;-66
2021/06/30 00:03:22;;;;;;;2.28;2.10;;;;;;;;;;5016385;28;20404;-67
2021/06/30 00:05:47;;;;;;;2.03;1.92;;;;;;;;;;5010877;28;20036;-68
2021/06/30 00:08:13;;;;;;;2.63;2.22;;;;;;;;;;5010838;28;20041;-66
2021/06/30 00:10:41;;;;;;;2.13;1.90;;;;;;;;;;5010942;28;20483;-67
2021/06/30 00:13:06;;;;;;;3.45;2.03;;;;;;;;;;5012639;28;20018;-68
2021/06/30 00:15:34;;;;;;;2.50;2.30;;;;;;;;;;5010892;28;20416;-67
2021/06/30 00:17:59;;;;;;;5.78;3.00;;;;;;;;;;5015682;28;20556;-67
2021/06/30 00:20:25;;;;;;;2.20;2.00;;;;;;;;;;5010668;28;20117;-67
2021/06/30 00:22:50;;;;;;;2.40;2.20;;;;;;;;;;5010216;28;20060;-67
2021/06/30 00:25:15;;;;;;;2.00;1.90;;;;;;;;;;5012518;28;20052;-67
2021/06/30 00:27:43;;;;;;;2.58;2.35;;;;;;;;;;5010475;28;20636;-67
2021/06/30 00:30:09;;;;;;;3.45;2.13;;;;;;;;;;5010246;28;20053;-68
2021/06/30 00:32:34;;;;;;;2.15;1.90;;;;;;;;;;5013912;28;20041;-67
2021/06/30 00:34:59;;;;;;;2.58;2.17;;;;;;;;;;5009868;28;20034;-68
2021/06/30 00:37:24;;;;;;;2.20;2.10;;;;;;;;;;5010323;28;20028;-68
2021/06/30 00:39:50;;;;;;;1.90;1.75;;;;;;;;;;5012301;28;20033;-68
2021/06/30 00:42:15;;;;;;;2.55;1.92;;;;;;;;;;5009979;28;20089;-68
2021/06/30 00:44:41;;;;;;;2.20;2.00;;;;;;;;;;5010191;28;20049;-68
2021/06/30 00:47:07;;;;;;;3.72;2.22;;;;;;;;;;5017257;28;20419;-68
2021/06/30 00:49:32;;;;;;;2.00;1.90;;;;;;;;;;5021664;28;20021;-67
2021/06/30 00:51:57;;;;;;;2.70;2.13;;;;;;;;;;5031669;28;20040;-67
2021/06/30 00:54:22;;;;;;;2.38;2.17;;;;;;;;;;5029474;28;20030;-68
2021/06/30 00:56:48;;;;;;;2.15;2.00;;;;;;;;;;5028636;28;20048;-68
2021/06/30 00:59:13;;;;;;;2.33;2.22;;;;;;;;;;5030045;28;20044;-68
2021/06/30 01:01:39;;;;;;;2.80;2.60;;;;;;;;;;5029947;28;20033;-68
2021/06/30 01:04:04;;;;;;;2.90;2.70;;;;;;;;;;5020637;28;20026;-68
2021/06/30 01:06:30;;;;;;;2.22;2.00;;;;;;;;;;5010010;28;20057;-68
2021/06/30 01:08:55;;;;;;;2.25;2.05;;;;;;;;;;5009992;28;20033;-68
2021/06/30 01:11:20;;;;;;;3.17;2.40;;;;;;;;;;5009838;28;20137;-69
2021/06/30 01:13:47;;;;;;;5.13;2.15;;;;;;;;;;5009333;28;20030;-68
2021/06/30 01:16:12;;;;;;;2.05;1.70;;;;;;;;;;5011697;28;20025;-68
2021/06/30 01:18:38;;;;;;;3.05;2.85;;;;;;;;;;5012187;28;20037;-68
2021/06/30 01:21:04;;;;;;;1.95;1.85;;;;;;;;;;5009535;28;20113;-68
2021/06/30 01:23:30;;;;;;;3.35;2.08;;;;;;;;;;5009039;28;20095;-68
2021/06/30 01:25:56;;;;;;;2.97;2.25;;;;;;;;;;5009449;28;20034;-68
2021/06/30 01:28:21;;;;;;;2.25;2.10;;;;;;;;;;5009346;28;20017;-68
2021/06/30 01:30:47;;;;;;;4.65;2.10;;;;;;;;;;5011536;28;20041;-69
2021/06/30 01:33:13;;;;;;;3.55;2.20;;;;;;;;;;5011012;28;20104;-68
2021/06/30 01:35:38;;;;;;;4.20;2.35;;;;;;;;;;5009114;28;20487;-68
2021/06/30 01:38:03;;;;;;;2.53;2.30;;;;;;;;;;5009352;28;20033;-68
2021/06/30 01:40:28;;;;;;;2.80;2.00;;;;;;;;;;5009108;28;20412;-68
2021/06/30 01:42:55;;;;;;;2.22;2.10;;;;;;;;;;5010730;28;20391;-68
2021/06/30 01:45:21;;;;;;;4.20;2.90;;;;;;;;;;5008997;28;20026;-68
2021/06/30 01:47:46;;;;;;;2.72;2.53;;;;;;;;;;5010537;28;20064;-67
2021/06/30 01:50:12;;;;;;;5.10;2.63;;;;;;;;;;5008530;28;20034;-67
2021/06/30 01:52:37;;;;;;;4.50;2.90;;;;;;;;;;5008555;28;20819;-68
2021/06/30 01:55:03;;;;;;;5.30;2.38;;;;;;;;;;4993310;28;20056;-68
2021/06/30 01:57:29;;;;;;;2.65;2.45;;;;;;;;;;5009041;28;20030;-68
2021/06/30 01:59:54;;;;;;;2.92;2.67;;;;;;;;;;5009147;28;20030;-68
2021/06/30 02:02:19;;;;;;;6.90;2.90;;;;;;;;;;5009074;28;20046;-68
2021/06/30 02:04:51;;;;;;;2.83;2.70;;;;;;;;;;5016387;28;20340;-67
2021/06/30 02:07:17;;;;;;;2.30;2.20;;;;;;;;;;5010896;28;20037;-67
2021/06/30 02:09:42;;;;;;;2.50;2.30;;;;;;;;;;5008917;28;20030;-67
2021/06/30 02:12:07;;;;;;;3.53;2.83;;;;;;;;;;5008310;28;20045;-67
2021/06/30 02:14:32;;;;;;;3.10;2.80;;;;;;;;;;5008484;28;20034;-66
2021/06/30 02:16:58;;;;;;;2.55;2.38;;;;;;;;;;5007973;28;20041;-66
2021/06/30 02:19:23;;;;;;;4.45;2.45;;;;;;;;;;5016715;28;20017;-67
2021/06/30 02:21:48;;;;;;;4.05;2.40;;;;;;;;;;5010623;28;20033;-67
2021/06/30 02:24:13;;;;;;;3.20;2.22;;;;;;;;;;5006874;28;20029;-67
2021/06/30 02:26:38;;;;;;;3.72;3.42;;;;;;;;;;5008462;28;20406;-67
2021/06/30 02:29:04;;;;;;;5.90;4.75;;;;;;;;;;5008517;28;20499;-67
2021/06/30 02:31:29;;;;;;;6.13;5.53;;;;;;;;;;5008573;28;20028;-67
2021/06/30 02:33:55;;;;;;;5.43;5.13;;;;;;;;;;5009903;28;20028;-67
2021/06/30 02:36:20;;;;;;;5.65;5.10;;;;;;;;;;5008223;28;20126;-67
2021/06/30 02:38:45;;;;;;;4.38;3.97;;;;;;;;;;5007521;28;20427;-67
2021/06/30 02:41:11;;;;;;;4.05;3.42;;;;;;;;;;5008186;28;20029;-67
2021/06/30 02:43:36;;;;;;;3.97;3.55;;;;;;;;;;5007906;28;20030;-66
2021/06/30 02:46:02;;;;;;;4.55;3.80;;;;;;;;;;5010406;28;20372;-69
2021/06/30 02:48:27;;;;;;;4.20;3.80;;;;;;;;;;5016133;28;20030;-67
2021/06/30 02:50:52;;;;;;;3.42;3.20;;;;;;;;;;5017531;28;20553;-67
2021/06/30 02:53:18;;;;;;;3.60;3.30;;;;;;;;;;5027607;28;20037;-68
2021/06/30 02:55:43;;;;;;;4.35;3.90;;;;;;;;;;5028487;28;20029;-67
2021/06/30 02:58:08;;;;;;;4.63;2.70;;;;;;;;;;5030413;28;20024;-67
2021/06/30 03:00:33;;;;;;;2.88;2.67;;;;;;;;;;5028058;28;20038;-67
2021/06/30 03:02:58;;;;;;;2.33;1.50;;;;;;;;;;5025185;28;20021;-67
2021/06/30 03:05:24;;;;;;;1.60;1.50;;;;;;;;;;5008131;28;20400;-67
2021/06/30 03:07:51;;;;;;;1.90;1.80;;;;;;;;;;5008112;28;20030;-69
2021/06/30 03:10:16;;;;;;;1.80;1.70;;;;;;;;;;5010189;28;20025;-68
2021/06/30 03:12:42;;;;;;;3.17;1.70;;;;;;;;;;5007957;28;20046;-67
2021/06/30 03:15:08;;;;;;;1.70;1.60;;;;;;;;;;5009727;28;20033;-68
2021/06/30 03:17:35;;;;;;;1.10;1.08;;;;;;;;;;5017192;28;20037;-68
2021/06/30 03:20:07;;;;;;;1.80;0.98;;;;;;;;;;5021442;28;20034;-67
2021/06/30 03:22:33;;;;;;;0.88;0.85;;;;;;;;;;5011630;28;20021;-67
2021/06/30 03:24:58;;;;;;;0.70;0.70;;;;;;;;;;5013869;28;20010;-67
2021/06/30 03:27:23;;;;;;;1.27;0.57;;;;;;;;;;5011592;28;20751;-68
2021/06/30 03:29:48;;;;;;;1.13;0.43;;;;;;;;;;5012002;28;20519;-67
2021/06/30 03:32:14;;;;;;;1.42;0.70;;;;;;;;;;5012865;28;20045;-67
2021/06/30 03:34:39;;;;;;;0.60;0.60;;;;;;;;;;5016175;28;20514;-67
2021/06/30 03:37:04;;;;;;;1.27;0.60;;;;;;;;;;5013718;28;20033;-67
2021/06/30 03:39:30;;;;;;;1.33;0.50;;;;;;;;;;5011469;28;20043;-68
2021/06/30 03:41:55;;;;;;;0.60;0.60;;;;;;;;;;5011676;28;20034;-67
2021/06/30 03:44:20;;;;;;;0.70;0.70;;;;;;;;;;5011231;28;20034;-68
2021/06/30 03:46:45;;;;;;;0.50;0.50;;;;;;;;;;5011577;28;20034;-67
2021/06/30 03:49:11;;;;;;;0.50;0.40;;;;;;;;;;5018609;28;20460;-67
2021/06/30 03:51:36;;;;;;;0.52;0.35;;;;;;;;;;5011269;28;20045;-67
2021/06/30 03:54:01;;;;;;;0.82;0.50;;;;;;;;;;5011089;28;20030;-67
2021/06/30 03:56:27;;;;;;;0.35;0.32;;;;;;;;;;5011236;28;20045;-67
2021/06/30 03:58:53;;;;;;;0.55;0.55;;;;;;;;;;5011280;28;20062;-67
2021/06/30 04:01:18;;;;;;;0.80;0.55;;;;;;;;;;5013228;28;20054;-67
2021/06/30 04:03:45;;;;;;;0.50;0.50;;;;;;;;;;5013974;28;20158;-67
2021/06/30 04:06:11;;;;;;;0.85;0.80;;;;;;;;;;5021623;28;20037;-66
2021/06/30 04:08:36;;;;;;;1.73;0.75;;;;;;;;;;5030902;28;20038;-67
2021/06/30 04:11:01;;;;;;;3.28;0.63;;;;;;;;;;5030690;28;20116;-67
2021/06/30 04:13:26;;;;;;;0.65;0.40;;;;;;;;;;5030018;28;20076;-66
2021/06/30 04:15:52;;;;;;;0.43;0.43;;;;;;;;;;5032692;28;20029;-67
2021/06/30 04:18:17;;;;;;;0.50;0.50;;;;;;;;;;5025888;28;20037;-66
2021/06/30 04:20:44;;;;;;;1.02;0.50;;;;;;;;;;5010393;28;20057;-67
2021/06/30 04:23:09;;;;;;;1.10;0.57;;;;;;;;;;5010067;28;20061;-67
2021/06/30 04:25:35;;;;;;;1.50;0.50;;;;;;;;;;5009655;28;20053;-66
2021/06/30 04:28:00;;;;;;;0.98;0.50;;;;;;;;;;5012632;28;20423;-66
2021/06/30 04:30:25;;;;;;;0.50;0.50;;;;;;;;;;5010696;28;20042;-66
2021/06/30 04:32:51;;;;;;;0.40;0.40;;;;;;;;;;5013830;28;20652;-66
2021/06/30 04:35:16;;;;;;;1.17;0.55;;;;;;;;;;5010179;28;20041;-66
2021/06/30 04:37:41;;;;;;;0.82;0.40;;;;;;;;;;5010437;28;20459;-66
2021/06/30 04:40:07;;;;;;;0.50;0.50;;;;;;;;;;5012264;28;20109;-66
2021/06/30 04:42:32;;;;;;;0.43;0.43;;;;;;;;;;5009869;28;20034;-67
2021/06/30 04:44:57;;;;;;;0.80;0.30;;;;;;;;;;5010358;28;20735;-67
2021/06/30 04:47:22;;;;;;;0.30;0.28;;;;;;;;;;5010115;28;20416;-67
2021/06/30 04:49:47;;;;;;;0.95;0.65;;;;;;;;;;5012671;28;20503;-67
2021/06/30 04:52:13;;;;;;;1.25;0.52;;;;;;;;;;5011667;28;20100;-66
2021/06/30 04:54:38;;;;;;;0.70;0.40;;;;;;;;;;5008782;28;20452;-66
2021/06/30 04:57:03;;;;;;;2.30;0.30;;;;;;;;;;5009988;28;20076;-66
2021/06/30 04:59:29;;;;;;;1.10;0.50;;;;;;;;;;5010047;28;20026;-66
2021/06/30 05:01:54;;;;;;;0.30;0.30;;;;;;;;;;5010072;28;20120;-67
2021/06/30 05:04:21;;;;;;;1.48;0.40;;;;;;;;;;5013856;28;20101;-67
2021/06/30 05:06:46;;;;;;;1.27;0.45;;;;;;;;;;5010373;28;20100;-66
2021/06/30 05:09:11;;;;;;;0.30;0.30;;;;;;;;;;5009749;28;20480;-66
2021/06/30 05:11:36;;;;;;;1.77;0.70;;;;;;;;;;5009701;28;20056;-66
2021/06/30 05:14:02;;;;;;;0.93;0.30;;;;;;;;;;4991466;28;20034;-66
2021/06/30 05:16:27;;;;;;;0.50;0.32;;;;;;;;;;5009269;28;20022;-66
2021/06/30 05:18:52;;;;;;;0.40;0.40;;;;;;;;;;5013661;28;20411;-66
2021/06/30 05:21:18;;;;;;;0.60;0.60;;;;;;;;;;5009579;28;20049;-66
2021/06/30 05:23:44;;;;;;;1.10;0.40;;;;;;;;;;5009085;28;20065;-67
2021/06/30 05:26:09;;;;;;;2.55;0.65;;;;;;;;;;5009385;28;20547;-65
2021/06/30 05:28:34;;;;;;;1.35;0.50;;;;;;;;;;5010018;28;20427;-66
2021/06/30 05:31:00;;;;;;;0.85;0.50;;;;;;;;;;5011720;28;20626;-66
2021/06/30 05:33:28;;;;;;;1.60;0.68;;;;;;;;;;5010525;28;20108;-66
2021/06/30 05:35:53;;;;;;;1.70;0.40;;;;;;;;;;5009370;28;20041;-65
2021/06/30 05:38:18;;;;;;;1.23;0.45;;;;;;;;;;5008571;28;20204;-65
2021/06/30 05:40:43;;;;;;;0.40;0.30;;;;;;;;;;5009240;28;20510;-65
2021/06/30 05:43:08;;;;;;;1.10;0.28;;;;;;;;;;4993124;28;20017;-66
2021/06/30 05:45:34;;;;;;;0.63;0.20;;;;;;;;;;5009390;28;20037;-65
2021/06/30 05:47:59;;;;;;;0.22;0.22;;;;;;;;;;5009801;28;20033;-65
2021/06/30 05:50:24;;;;;;;0.80;0.25;;;;;;;;;;5016813;28;20503;-65
2021/06/30 05:52:49;;;;;;;0.73;0.43;;;;;;;;;;5008642;28;20463;-65
2021/06/30 05:55:15;;;;;;;0.75;0.40;;;;;;;;;;5009682;28;20025;-65
2021/06/30 05:57:40;;;;;;;1.73;0.30;;;;;;;;;;5008991;28;20029;-65
2021/06/30 06:00:07;;;;;;;2.90;0.65;;;;;;;;;;5008945;28;20061;-65
2021/06/30 06:02:32;;;;;;;0.55;0.28;;;;;;;;;;5007177;28;20030;-66
2021/06/30 06:04:57;;;;;;;2.60;0.60;;;;;;;;;;5009343;28;20088;-65
2021/06/30 06:07:22;;;;;;;0.20;0.20;;;;;;;;;;4991338;28;20022;-65
2021/06/30 06:09:48;;;;;;;0.53;0.30;;;;;;;;;;5011036;28;20033;-65
2021/06/30 06:12:13;;;;;;;4.43;0.50;;;;;;;;;;5008275;28;20293;-65
2021/06/30 06:14:38;;;;;;;0.25;0.20;;;;;;;;;;4991203;28;20292;-65
2021/06/30 06:17:03;;;;;;;3.03;0.57;;;;;;;;;;5008661;28;20042;-65
2021/06/30 06:19:29;;;;;;;1.40;0.30;;;;;;;;;;5016805;28;20022;-64
2021/06/30 06:21:54;;;;;;;1.85;0.20;;;;;;;;;;5010871;28;20022;-65
2021/06/30 06:24:19;;;;;;;1.55;0.30;;;;;;;;;;4990041;28;20042;-64
2021/06/30 06:26:46;;;;;;;0.75;0.22;;;;;;;;;;5008302;28;20034;-66
2021/06/30 06:29:12;;;;;;;0.38;0.15;;;;;;;;;;5008560;28;20387;-65
2021/06/30 06:31:37;;;;;;;0.38;0.30;;;;;;;;;;5008354;28;20125;-65
2021/06/30 06:34:03;;;;;;;1.25;0.30;;;;;;;;;;4999660;28;20057;-64
2021/06/30 06:36:28;;;;;;;0.80;0.20;;;;;;;;;;5008285;28;20080;-64
2021/06/30 06:38:53;;;;;;;0.30;0.20;;;;;;;;;;4990368;28;20038;-65
2021/06/30 06:41:18;;;;;;;0.80;0.50;;;;;;;;;;5008429;28;20025;-65
2021/06/30 06:43:44;;;;;;;0.75;0.35;;;;;;;;;;5007906;28;20022;-65
2021/06/30 06:46:09;;;;;;;3.17;0.38;;;;;;;;;;5010296;28;20109;-64
2021/06/30 06:48:35;;;;;;;2.78;0.20;;;;;;;;;;4996847;28;20457;-65
2021/06/30 06:51:00;;;;;;;0.28;0.20;;;;;;;;;;5013575;28;20392;-64
2021/06/30 06:53:25;;;;;;;0.47;0.20;;;;;;;;;;5012039;28;20423;-64
2021/06/30 06:55:51;;;;;;;0.30;0.30;;;;;;;;;;4994476;28;20026;-66
2021/06/30 06:58:17;;;;;;;1.50;0.30;;;;;;;;;;5014156;28;20018;-66
2021/06/30 07:00:42;;;;;;;2.22;0.20;;;;;;;;;;5011948;28;20401;-64
2021/06/30 07:03:07;;;;;;;0.57;0.40;;;;;;;;;;5012944;28;20042;-64
2021/06/30 07:05:32;;;;;;;0.37;0.10;;;;;;;;;;5016952;28;20459;-64
2021/06/30 07:07:57;;;;;;;0.17;0.15;;;;;;;;;;5011735;28;20277;-64
2021/06/30 07:10:23;;;;;;;0.40;0.20;;;;;;;;;;5011978;28;20022;-67
2021/06/30 07:12:48;;;;;;;0.47;0.00;;;;;;;;;;5013389;28;20037;-65
2021/06/30 07:15:13;;;;;;;1.20;0.20;;;;;;;;;;4994055;28;20050;-65
2021/06/30 07:17:39;;;;;;;0.20;0.10;;;;;;;;;;4994287;28;20034;-64
2021/06/30 07:20:05;;;;;;;0.00;0.00;;;;;;;;;;5017366;28;20041;-64
2021/06/30 07:22:30;;;;;;;2.55;0.30;;;;;;;;;;5011276;28;20021;-65
2021/06/30 07:24:55;;;;;;;0.77;0.20;;;;;;;;;;5013743;28;20014;-65
2021/06/30 07:27:21;;;;;;;0.90;0.10;;;;;;;;;;5010758;28;20030;-65
2021/06/30 07:29:46;;;;;;;1.25;0.30;;;;;;;;;;5011472;28;20038;-64
2021/06/30 07:32:11;;;;;;;2.13;0.20;;;;;;;;;;5011147;28;20040;-65
2021/06/30 07:34:36;;;;;;;1.30;0.10;;;;;;;;;;5016480;28;20398;-66
2021/06/30 07:37:02;;;;;;;0.93;0.10;;;;;;;;;;5013112;28;20408;-65
2021/06/30 07:39:27;;;;;;;3.47;0.28;;;;;;;;;;5010884;28;20273;-66
2021/06/30 07:41:52;;;;;;;2.58;0.63;;;;;;;;;;5011157;28;20096;-67
2021/06/30 07:44:18;;;;;;;0.30;0.13;;;;;;;;;;5011084;28;20532;-66
2021/06/30 07:46:44;;;;;;;0.85;0.10;;;;;;;;;;5011353;28;20041;-66
2021/06/30 07:49:09;;;;;;;0.65;0.10;;;;;;;;;;5003674;28;20013;-64
2021/06/30 07:51:34;;;;;;;0.30;0.10;;;;;;;;;;5029572;28;20037;-65
2021/06/30 07:54:00;;;;;;;1.00;0.30;;;;;;;;;;5030368;28;20036;-64
2021/06/30 07:56:34;;;;;;;0.28;0.10;;;;;;;;;;5029225;28;20029;-65
2021/06/30 07:59:00;;;;;;;0.30;0.17;;;;;;;;;;5012386;28;20037;-64
2021/06/30 08:01:25;;;;;;;0.13;0.13;;;;;;;;;;5029835;28;20033;-65
2021/06/30 08:03:51;;;;;;;0.52;0.38;;;;;;;;;;5030745;28;20025;-66
2021/06/30 08:06:16;;;;;;;0.37;0.30;;;;;;;;;;5010736;28;20034;-65
2021/06/30 08:08:41;;;;;;;0.47;0.30;;;;;;;;;;5010640;28;20261;-66
2021/06/30 08:11:06;;;;;;;0.20;0.20;;;;;;;;;;5010830;28;20817;-66
2021/06/30 08:13:31;;;;;;;0.20;0.20;;;;;;;;;;4992662;28;20268;-66
2021/06/30 08:15:57;;;;;;;0.10;0.10;;;;;;;;;;5012842;28;20277;-66
2021/06/30 08:18:22;;;;;;;0.87;0.20;;;;;;;;;;5011354;28;20053;-66
2021/06/30 08:20:51;;;;;;;2.17;0.40;;;;;;;;;;5012578;28;20329;-66
2021/06/30 08:23:16;;;;;;;0.90;0.30;;;;;;;;;;5029939;28;20275;-66
2021/06/30 08:25:45;;;;;;;0.20;0.20;;;;;;;;;;5029953;28;20163;-66
2021/06/30 08:28:10;;;;;;;0.90;0.32;;;;;;;;;;5032265;28;20052;-65
2021/06/30 08:30:35;;;;;;;1.30;0.20;;;;;;;;;;5030138;28;20092;-66
2021/06/30 08:33:00;;;;;;;0.73;0.20;;;;;;;;;;5011823;28;20041;-66
2021/06/30 08:35:26;;;;;;;0.10;0.10;;;;;;;;;;5015539;28;20450;-66
2021/06/30 08:37:54;;;;;;;2.47;0.20;;;;;;;;;;5009938;28;20030;-66
2021/06/30 08:40:19;;;;;;;0.10;0.10;;;;;;;;;;5012667;28;20265;-66
2021/06/30 08:42:45;;;;;;;0.47;0.20;;;;;;;;;;5009680;28;20045;-66
2021/06/30 08:45:10;;;;;;;0.10;0.10;;;;;;;;;;5010422;28;20687;-66
2021/06/30 08:47:36;;;;;;;0.45;0.15;;;;;;;;;;5010138;28;20034;-66
2021/06/30 08:50:02;;;;;;;2.10;0.20;;;;;;;;;;4996911;28;20377;-66
2021/06/30 08:52:28;;;;;;;1.48;0.20;;;;;;;;;;5015183;28;20044;-66
2021/06/30 08:54:53;;;;;;;0.40;0.20;;;;;;;;;;5011878;28;20021;-66
2021/06/30 08:57:19;;;;;;;0.25;0.22;;;;;;;;;;5010078;28;20025;-66
2021/06/30 08:59:45;;;;;;;0.35;0.20;;;;;;;;;;5008651;28;20034;-66
2021/06/30 09:02:11;;;;;;;0.20;0.20;;;;;;;;;;5009631;28;20036;-66
2021/06/30 09:04:40;;;;;;;0.20;0.20;;;;;;;;;;5011646;28;20401;-66
2021/06/30 09:07:05;;;;;;;0.28;0.10;;;;;;;;;;4994135;28;20018;-66
2021/06/30 09:09:36;;;;;;;0.60;0.30;;;;;;;;;;5009579;28;20030;-66
2021/06/30 09:12:01;;;;;;;0.68;0.20;;;;;;;;;;4991685;28;20050;-67
2021/06/30 09:14:30;;;;;;;0.20;0.20;;;;;;;;;;5009187;28;20036;-66
2021/06/30 09:17:18;;;;;;;0.63;0.20;;;;;;;;;;5009654;28;20388;-66
2021/06/30 09:19:46;;;;;;;1.25;0.10;;;;;;;;;;5010626;28;20533;-66
2021/06/30 09:22:12;;;;;;;0.20;0.10;;;;;;;;;;5022515;28;20025;-67
2021/06/30 09:24:37;;;;;;;1.10;0.15;;;;;;;;;;5028692;28;20332;-67
2021/06/30 09:27:02;;;;;;;0.65;0.20;;;;;;;;;;5029032;28;20029;-67
2021/06/30 09:29:28;;;;;;;0.10;0.10;;;;;;;;;;5029364;28;20029;-67
2021/06/30 09:31:53;;;;;;;1.38;0.40;;;;;;;;;;5028580;28;20041;-67
2021/06/30 09:34:23;;;;;;;0.13;0.10;;;;;;;;;;5007789;28;20026;-68
2021/06/30 09:37:00;;;;;;;0.20;0.10;;;;;;;;;;5009184;28;20073;-67
2021/06/30 09:39:26;;;;;;;0.38;0.20;;;;;;;;;;5009398;28;20045;-67
2021/06/30 09:42:05;;;;;;;0.20;0.20;;;;;;;;;;5009562;28;20034;-67
2021/06/30 09:44:31;;;;;;;0.75;0.40;;;;;;;;;;5009306;28;20432;-67
2021/06/30 09:46:56;;;;;;;0.60;0.10;;;;;;;;;;5009297;28;20369;-67
2021/06/30 09:49:23;;;;;;;0.10;0.10;;;;;;;;;;4993698;28;20025;-68
2021/06/30 09:52:03;;;;;;;0.85;0.20;;;;;;;;;;4991348;28;20049;-67
2021/06/30 09:54:29;;;;;;;0.20;0.20;;;;;;;;;;4991138;28;20546;-68
2021/06/30 09:56:55;;;;;;;0.30;0.30;;;;;;;;;;4991269;28;20514;-68
2021/06/30 09:59:21;;;;;;;0.70;0.20;;;;;;;;;;5009213;28;20022;-67
2021/06/30 10:01:51;;;;;;;0.22;0.22;;;;;;;;;;5008648;28;20265;-69
2021/06/30 10:04:23;;;;;;;0.17;0.10;;;;;;;;;;5014206;28;20365;-68
2021/06/30 10:06:48;;;;;;;0.28;0.20;;;;;;;;;;5011434;28;20448;-67
2021/06/30 10:09:14;;;;;;;0.10;0.10;;;;;;;;;;5008585;28;20127;-68
2021/06/30 10:11:39;;;;;;;0.10;0.10;;;;;;;;;;4990855;28;20281;-67
2021/06/30 10:14:04;;;;;;;0.27;0.10;;;;;;;;;;4990458;28;20120;-68
2021/06/30 10:16:30;;;;;;;0.43;0.20;;;;;;;;;;5008670;28;20336;-68
2021/06/30 10:18:56;;;;;;;0.93;0.30;;;;;;;;;;5011380;28;20026;-68
2021/06/30 10:21:24;;;;;;;0.20;0.10;;;;;;;;;;5014984;28;20758;-69
2021/06/30 10:23:49;;;;;;;0.82;0.40;;;;;;;;;;5007629;28;20060;-69
2021/06/30 10:26:16;;;;;;;0.55;0.20;;;;;;;;;;5008514;28;20038;-69
2021/06/30 10:28:42;;;;;;;0.25;0.25;;;;;;;;;;5008703;28;20017;-69
2021/06/30 10:31:07;;;;;;;0.70;0.47;;;;;;;;;;5010394;28;20508;-69
2021/06/30 10:33:34;;;;;;;0.57;0.38;;;;;;;;;;5007727;28;20062;-69
2021/06/30 10:35:59;;;;;;;0.15;0.15;;;;;;;;;;5015059;28;20397;-69
2021/06/30 10:39:00;;;;;;;0.20;0.20;;;;;;;;;;5021711;28;20157;-71
2021/06/30 10:41:43;;;;;;;0.30;0.20;;;;;;;;;;4986112;28;20043;-70
2021/06/30 10:44:08;;;;;;;0.20;0.17;;;;;;;;;;5007843;28;20167;-70
2021/06/30 10:46:33;;;;;;;0.53;0.30;;;;;;;;;;5028055;28;20048;-69
2021/06/30 10:49:15;;;;;;;0.43;0.13;;;;;;;;;;5011709;28;20741;-70
2021/06/30 10:51:54;;;;;;;0.30;0.30;;;;;;;;;;5012282;28;20045;-70
2021/06/30 10:54:31;;;;;;;0.75;0.22;;;;;;;;;;5007912;28;20485;-70
2021/06/30 10:57:15;;;;;;;0.35;0.10;;;;;;;;;;5008072;28;20100;-69
2021/06/30 11:00:03;;;;;;;0.63;0.20;;;;;;;;;;4990680;28;20096;-69
2021/06/30 11:02:33;;;;;;;0.28;0.20;;;;;;;;;;4989438;28;20034;-70
2021/06/30 11:05:18;;;;;;;0.70;0.20;;;;;;;;;;5013693;28;20060;-70
2021/06/30 11:07:45;;;;;;;1.10;0.28;;;;;;;;;;5000447;28;20476;-70
2021/06/30 11:10:16;;;;;;;0.40;0.20;;;;;;;;;;5010275;28;20081;-71
2021/06/30 11:12:53;;;;;;;0.38;0.35;;;;;;;;;;5007750;28;20041;-70
2021/06/30 11:15:40;;;;;;;0.20;0.20;;;;;;;;;;5008119;28;20437;-71
2021/06/30 11:18:11;;;;;;;0.10;0.10;;;;;;;;;;5008333;28;20442;-70
2021/06/30 11:20:46;;;;;;;0.28;0.28;;;;;;;;;;5012865;28;20039;-70
2021/06/30 11:23:21;;;;;;;1.15;0.20;;;;;;;;;;5001605;28;20120;-70
2021/06/30 11:25:47;;;;;;;0.35;0.35;;;;;;;;;;5027631;28;20022;-70
2021/06/30 11:28:31;;;;;;;1.20;0.20;;;;;;;;;;5012171;28;20063;-70
2021/06/30 11:30:57;;;;;;;0.32;0.20;;;;;;;;;;5027899;28;20048;-69
2021/06/30 11:33:23;;;;;;;0.40;0.20;;;;;;;;;;5027269;28;20041;-69
2021/06/30 11:35:48;;;;;;;0.45;0.25;;;;;;;;;;5019477;28;20325;-69
2021/06/30 11:38:15;;;;;;;0.90;0.22;;;;;;;;;;5011867;28;20099;-69
2021/06/30 11:40:57;;;;;;;0.40;0.30;;;;;;;;;;5011694;28;20097;-70
2021/06/30 11:43:24;;;;;;;0.20;0.20;;;;;;;;;;4995429;28;20053;-70
2021/06/30 11:45:54;;;;;;;1.90;0.40;;;;;;;;;;4993813;28;20025;-69
2021/06/30 11:48:19;;;;;;;0.73;0.20;;;;;;;;;;4993727;28;20053;-69
2021/06/30 11:50:49;;;;;;;1.70;0.25;;;;;;;;;;5015171;28;20042;-69
2021/06/30 11:53:15;;;;;;;0.30;0.30;;;;;;;;;;5023109;28;20034;-69
2021/06/30 11:55:41;;;;;;;1.00;0.20;;;;;;;;;;5013509;28;20017;-68
2021/06/30 11:58:06;;;;;;;0.30;0.20;;;;;;;;;;5033077;28;20107;-68
2021/06/30 12:00:33;;;;;;;1.05;0.30;;;;;;;;;;5013085;28;20096;-68
2021/06/30 12:02:59;;;;;;;0.63;0.20;;;;;;;;;;5030540;28;20029;-69
2021/06/30 12:05:26;;;;;;;0.80;0.30;;;;;;;;;;5006895;28;20041;-69
2021/06/30 12:07:54;;;;;;;0.40;0.30;;;;;;;;;;4993571;28;20498;-69
2021/06/30 12:10:20;;;;;;;1.23;0.40;;;;;;;;;;5012953;28;20482;-69
2021/06/30 12:12:46;;;;;;;0.50;0.50;;;;;;;;;;5010669;28;20041;-69
2021/06/30 12:15:12;;;;;;;0.98;0.40;;;;;;;;;;5010806;28;20045;-69
2021/06/30 12:17:37;;;;;;;0.55;0.30;;;;;;;;;;4993443;28;20117;-69
2021/06/30 12:20:05;;;;;;;1.85;0.93;;;;;;;;;;5013389;28;20506;-69
2021/06/30 12:22:32;;;;;;;0.52;0.50;;;;;;;;;;5016083;28;20396;-69
2021/06/30 12:25:03;;;;;;;1.10;0.43;;;;;;;;;;5014719;28;20017;-69
2021/06/30 12:27:33;;;;;;;0.57;0.45;;;;;;;;;;5030588;28;20041;-69
2021/06/30 12:30:04;;;;;;;1.05;0.50;;;;;;;;;;5030368;28;20144;-69
2021/06/30 12:32:30;;;;;;;0.75;0.40;;;;;;;;;;5029681;28;20468;-69
2021/06/30 12:34:59;;;;;;;1.50;0.80;;;;;;;;;;5028420;28;20098;-69
2021/06/30 12:37:25;;;;;;;1.33;0.52;;;;;;;;;;4994695;28;20021;-69
2021/06/30 12:39:53;;;;;;;1.40;0.60;;;;;;;;;;5010121;28;20492;-67
2021/06/30 12:42:19;;;;;;;1.30;0.52;;;;;;;;;;5009808;28;20049;-69
2021/06/30 12:44:52;;;;;;;0.63;0.30;;;;;;;;;;5010326;28;20034;-69
2021/06/30 12:47:17;;;;;;;0.57;0.50;;;;;;;;;;5009799;28;20049;-69
2021/06/30 12:49:54;;;;;;;1.75;0.50;;;;;;;;;;5011835;28;20444;-69
2021/06/30 12:52:21;;;;;;;1.48;0.50;;;;;;;;;;5003450;28;20025;-69
2021/06/30 12:54:58;;;;;;;0.82;0.50;;;;;;;;;;5010409;28;20034;-69
2021/06/30 12:57:23;;;;;;;1.20;0.57;;;;;;;;;;5009833;28;20034;-69
2021/06/30 13:00:05;;;;;;;1.53;0.70;;;;;;;;;;5010227;28;20391;-69
2021/06/30 13:02:30;;;;;;;2.03;0.65;;;;;;;;;;5009691;28;20771;-68
2021/06/30 13:04:56;;;;;;;2.03;0.60;;;;;;;;;;4993616;28;20080;-68
2021/06/30 13:07:36;;;;;;;1.80;0.60;;;;;;;;;;5010804;28;20347;-69
2021/06/30 13:10:14;;;;;;;1.25;0.70;;;;;;;;;;4993451;28;20269;-68
2021/06/30 13:12:40;;;;;;;2.17;0.75;;;;;;;;;;4991961;28;20050;-68
2021/06/30 13:15:19;;;;;;;1.92;0.50;;;;;;;;;;5009936;28;20057;-68
2021/06/30 13:17:44;;;;;;;1.48;0.60;;;;;;;;;;5009557;28;20042;-68
2021/06/30 13:20:13;;;;;;;1.92;0.90;;;;;;;;;;5010498;28;20038;-68
2021/06/30 13:22:42;;;;;;;5.88;0.70;;;;;;;;;;5009483;28;20368;-68
2021/06/30 13:25:18;;;;;;;1.52;0.40;;;;;;;;;;5011699;28;20018;-69
2021/06/30 13:27:55;;;;;;;0.77;0.75;;;;;;;;;;5009680;28;20042;-68
2021/06/30 13:35:46;;;;;;;0.60;0.60;;;;;;;;;;5017710;28;20044;-68
2021/06/30 13:38:27;;;;;;;1.85;1.05;;;;;;;;;;5011284;28;20074;-70
2021/06/30 13:40:53;;;;;;;0.73;0.47;;;;;;;;;;5011354;28;20033;-69
2021/06/30 13:43:19;;;;;;;1.67;0.50;;;;;;;;;;5030605;28;20036;-68
2021/06/30 13:45:44;;;;;;;1.75;0.50;;;;;;;;;;5029086;28;20045;-69
2021/06/30 13:48:10;;;;;;;2.17;0.82;;;;;;;;;;5011321;28;20486;-69
2021/06/30 13:50:36;;;;;;;0.65;0.50;;;;;;;;;;5028621;28;20055;-69
2021/06/30 13:53:02;;;;;;;0.60;0.50;;;;;;;;;;5009492;28;20025;-67
2021/06/30 13:55:28;;;;;;;1.55;0.60;;;;;;;;;;4991505;28;20025;-67
2021/06/30 13:57:53;;;;;;;1.60;0.43;;;;;;;;;;4993188;28;20010;-69
2021/06/30 14:00:19;;;;;;;0.70;0.50;;;;;;;;;;5009477;28;20582;-69
2021/06/30 14:02:44;;;;;;;0.32;0.32;;;;;;;;;;5008977;28;20755;-69
2021/06/30 14:05:09;;;;;;;1.87;0.40;;;;;;;;;;5011764;28;20045;-68
2021/06/30 14:07:34;;;;;;;1.65;0.65;;;;;;;;;;5013766;28;20615;-69
2021/06/30 14:10:00;;;;;;;0.52;0.32;;;;;;;;;;5010549;28;20475;-68
2021/06/30 14:12:26;;;;;;;2.45;0.50;;;;;;;;;;5008105;28;20052;-69
2021/06/30 14:14:51;;;;;;;1.98;0.52;;;;;;;;;;5008971;28;20036;-69
2021/06/30 14:17:16;;;;;;;0.55;0.45;;;;;;;;;;5008666;28;20065;-68
2021/06/30 14:19:41;;;;;;;1.10;0.75;;;;;;;;;;4991142;28;20118;-68
2021/06/30 14:22:07;;;;;;;2.35;0.50;;;;;;;;;;5016512;28;20046;-68
2021/06/30 14:24:32;;;;;;;2.05;0.47;;;;;;;;;;5008256;28;20388;-68
2021/06/30 14:26:57;;;;;;;1.10;0.40;;;;;;;;;;4990544;28;20069;-69
2021/06/30 14:29:22;;;;;;;0.50;0.50;;;;;;;;;;5008507;28;20364;-68
2021/06/30 14:31:48;;;;;;;0.40;0.30;;;;;;;;;;5008344;28;20049;-69
2021/06/30 14:34:13;;;;;;;0.50;0.32;;;;;;;;;;5009911;28;20472;-69
2021/06/30 14:36:38;;;;;;;2.45;0.40;;;;;;;;;;5014394;28;20041;-68
2021/06/30 14:39:04;;;;;;;0.50;0.50;;;;;;;;;;5008091;28;20050;-68
2021/06/30 14:41:30;;;;;;;1.52;0.40;;;;;;;;;;5008239;28;20273;-68
2021/06/30 14:43:55;;;;;;;1.08;0.35;;;;;;;;;;5008091;28;20392;-69
2021/06/30 14:46:20;;;;;;;0.63;0.40;;;;;;;;;;5010743;28;20024;-68